createdAt,value
2022-08-19T00:00:15.190Z,99375.69
2022-08-19T00:02:49.969Z,99376.91
2022-08-19T00:05:21.677Z,99385.16
2022-08-19T00:07:53.073Z,99379.53
2022-08-19T00:10:22.998Z,99387.66
2022-08-19T00:12:52.424Z,99390.16
2022-08-19T00:15:23.693Z,99382.34
2022-08-19T00:17:52.936Z,99381.13
2022-08-19T00:20:24.096Z,99394.25
2022-08-19T00:22:55.484Z,99385.47
2022-08-19T00:25:29.873Z,99395.63
2022-08-19T00:28:00.663Z,99390.53
2022-08-19T00:30:30.054Z,99387.03
2022-08-19T00:32:59.864Z,99389.81
2022-08-19T00:35:29.502Z,99388.22
2022-08-19T00:38:01.419Z,99392.53
2022-08-19T00:40:31.960Z,99391.91
2022-08-19T00:43:01.725Z,99394.44
2022-08-19T00:45:36.523Z,99392.06
2022-08-19T00:48:06.626Z,99388.06
2022-08-19T00:50:51.607Z,99399.97
2022-08-19T00:53:27.662Z,99402.50
2022-08-19T00:56:00.725Z,99413.97
2022-08-19T00:58:34.896Z,99415.50
2022-08-19T01:01:06.031Z,99413.38
2022-08-19T01:03:56.482Z,99409.53
2022-08-19T01:06:27.253Z,99419.88
2022-08-19T01:08:58.581Z,99421.00
2022-08-19T01:11:28.077Z,99423.91
2022-08-19T01:13:58.013Z,99428.69
2022-08-19T01:16:31.363Z,99430.94
2022-08-19T01:19:00.386Z,99435.94
2022-08-19T01:21:34.834Z,99428.69
2022-08-19T01:24:06.636Z,99422.81
2022-08-19T01:26:42.931Z,99426.69
2022-08-19T01:29:14.033Z,99426.41
2022-08-19T01:31:44.351Z,99424.75
2022-08-19T01:34:13.616Z,99424.28
2022-08-19T01:36:48.481Z,99428.56
2022-08-19T01:39:22.758Z,99420.22
2022-08-19T01:41:56.409Z,99414.00
2022-08-19T01:44:26.281Z,99415.00
2022-08-19T01:46:55.379Z,99417.00
2022-08-19T01:49:27.882Z,99415.41
2022-08-19T01:51:59.495Z,99409.06
2022-08-19T01:54:30.529Z,99407.44
2022-08-19T01:57:04.184Z,99413.44
2022-08-19T01:59:35.126Z,99405.63
2022-08-19T02:02:06.876Z,99398.50
2022-08-19T02:04:36.614Z,99403.31
2022-08-19T02:07:06.579Z,99406.97
2022-08-19T02:09:38.656Z,99399.81
2022-08-19T02:12:10.131Z,99404.28
2022-08-19T02:14:40.665Z,99404.44
2022-08-19T02:17:10.732Z,99418.44
2022-08-19T02:19:41.693Z,99438.69
2022-08-19T02:22:12.413Z,99443.06
2022-08-19T02:24:43.513Z,99451.75
2022-08-19T02:27:12.639Z,99444.78
2022-08-19T02:29:42.788Z,99440.25
2022-08-19T02:32:12.260Z,99442.25
2022-08-19T02:34:41.681Z,99432.78
2022-08-19T02:37:31.811Z,99435.69
2022-08-19T02:40:05.575Z,99443.00
2022-08-19T02:42:44.356Z,99441.03
2022-08-19T02:45:14.110Z,99437.09
2022-08-19T02:47:44.979Z,99445.22
2022-08-19T02:50:15.851Z,99443.34
2022-08-19T02:52:46.169Z,99443.00
2022-08-19T02:55:18.394Z,99446.13
2022-08-19T02:57:47.939Z,99444.28
2022-08-19T03:00:18.369Z,99455.31
2022-08-19T03:02:49.946Z,99436.91
2022-08-19T03:05:19.259Z,99444.47
2022-08-19T03:07:57.669Z,99437.28
2022-08-19T03:10:28.585Z,99436.75
2022-08-19T03:12:58.594Z,99430.69
2022-08-19T03:15:32.534Z,99446.72
2022-08-19T03:18:01.701Z,99450.59
2022-08-19T03:20:32.049Z,99455.31
2022-08-19T03:23:01.880Z,99450.13
2022-08-19T03:25:39.769Z,99464.63
2022-08-19T03:28:09.600Z,99455.91
2022-08-19T03:30:40.675Z,99460.88
2022-08-19T03:33:18.277Z,99461.69
2022-08-19T03:36:10.652Z,99457.47
2022-08-19T03:38:41.718Z,99451.69
2022-08-19T03:41:16.563Z,99448.91
2022-08-19T03:43:47.925Z,99448.91
2022-08-19T03:46:18.265Z,99450.56
2022-08-19T03:48:47.712Z,99444.97
2022-08-19T03:51:30.847Z,99450.06
2022-08-19T03:54:02.489Z,99459.59
2022-08-19T03:56:33.559Z,99451.06
2022-08-19T03:59:02.778Z,99447.06
2022-08-19T04:01:35.434Z,99449.91
2022-08-19T04:04:05.992Z,99453.47
2022-08-19T04:06:40.554Z,99462.13
2022-08-19T04:09:13.333Z,99460.28
2022-08-19T04:11:48.384Z,99459.06
2022-08-19T04:14:20.397Z,99458.97
2022-08-19T04:16:51.572Z,99462.22
2022-08-19T04:19:22.958Z,99462.28
2022-08-19T04:21:54.211Z,99458.47
2022-08-19T04:24:25.430Z,99449.69
2022-08-19T04:26:57.137Z,99458.41
2022-08-19T04:29:28.367Z,99458.69
2022-08-19T04:31:59.716Z,99462.56
2022-08-19T04:34:31.618Z,99461.53
2022-08-19T04:37:01.527Z,99461.09
2022-08-19T04:39:46.804Z,99467.75
2022-08-19T04:42:35.940Z,99476.19
2022-08-19T04:45:09.403Z,99482.44
2022-08-19T04:47:47.424Z,99479.66
2022-08-19T04:50:27.923Z,99477.53
2022-08-19T04:52:57.854Z,99477.81
2022-08-19T04:55:27.934Z,99474.44
2022-08-19T04:58:01.238Z,99478.50
2022-08-19T05:00:32.672Z,99476.88
2022-08-19T05:03:05.005Z,99480.81
2022-08-19T05:05:45.343Z,99484.50
2022-08-19T05:08:19.777Z,99484.50
2022-08-19T05:11:01.464Z,99487.44
2022-08-19T05:13:32.633Z,99479.88
2022-08-19T05:16:02.761Z,99481.88
2022-08-19T05:18:50.674Z,99483.88
2022-08-19T05:21:41.595Z,99492.66
2022-08-19T05:24:13.892Z,99486.44
2022-08-19T05:26:46.693Z,99489.59
2022-08-19T05:29:21.178Z,99483.50
2022-08-19T05:31:54.794Z,99485.22
2022-08-19T05:34:27.492Z,99482.53
2022-08-19T05:37:01.314Z,99481.22
2022-08-19T05:39:34.709Z,99484.16
2022-08-19T05:42:08.216Z,99477.22
2022-08-19T05:44:45.360Z,99478.56
2022-08-19T05:47:20.183Z,99483.34
2022-08-19T05:49:53.137Z,99485.78
2022-08-19T05:52:26.037Z,99489.47
2022-08-19T05:54:57.212Z,99482.94
2022-08-19T05:57:29.019Z,99477.31
2022-08-19T06:00:03.578Z,99475.31
2022-08-19T06:02:42.590Z,99471.09
2022-08-19T06:05:13.028Z,99477.06
2022-08-19T06:07:43.084Z,99475.06
2022-08-19T06:10:13.477Z,99473.88
2022-08-19T06:12:44.710Z,99479.25
2022-08-19T06:15:17.221Z,99492.88
2022-08-19T06:17:47.520Z,99488.69
2022-08-19T06:20:34.363Z,99485.81
2022-08-19T06:23:11.118Z,99488.25
2022-08-19T06:25:47.415Z,99480.56
2022-08-19T06:28:17.353Z,99486.66
2022-08-19T06:30:49.752Z,99493.31
2022-08-19T06:33:19.721Z,99485.00
2022-08-19T06:35:50.155Z,99486.66
2022-08-19T06:38:24.670Z,99494.94
2022-08-19T06:41:01.997Z,99486.56
2022-08-19T06:43:42.107Z,99496.72
2022-08-19T06:46:21.434Z,99489.66
2022-08-19T06:48:51.168Z,99497.44
2022-08-19T06:51:21.292Z,99493.38
2022-08-19T06:53:55.698Z,99494.91
2022-08-19T06:56:32.976Z,99501.00
2022-08-19T06:59:04.920Z,99495.41
2022-08-19T07:01:42.231Z,99494.69
2022-08-19T07:04:12.383Z,99492.75
2022-08-19T07:06:43.524Z,99491.59
2022-08-19T07:09:18.387Z,99499.19
2022-08-19T07:11:54.866Z,99495.59
2022-08-19T07:14:27.314Z,99483.63
2022-08-19T07:16:59.387Z,99490.44
2022-08-19T07:19:29.684Z,99493.59
2022-08-19T07:22:00.675Z,99490.78
2022-08-19T07:24:33.763Z,99488.28
2022-08-19T07:27:06.354Z,99495.34
2022-08-19T07:29:45.752Z,99493.84
2022-08-19T07:32:28.366Z,99492.88
2022-08-19T07:34:58.163Z,99500.53
2022-08-19T07:37:33.075Z,99504.47
2022-08-19T07:40:03.965Z,99492.44
2022-08-19T07:42:34.177Z,99499.16
2022-08-19T07:45:03.899Z,99495.72
2022-08-19T07:47:49.299Z,99500.25
2022-08-19T07:50:23.032Z,99493.84
2022-08-19T07:52:53.306Z,99500.25
2022-08-19T07:55:41.739Z,99497.81
2022-08-19T07:58:18.071Z,99507.25
2022-08-19T08:00:50.889Z,99500.59
2022-08-19T08:03:47.767Z,99493.50
2022-08-19T08:06:36.691Z,99504.84
2022-08-19T08:12:13.320Z,99512.03
2022-08-19T08:14:56.875Z,99506.50
2022-08-19T08:17:31.011Z,99503.50
2022-08-19T08:20:22.008Z,99507.97
2022-08-19T08:23:10.659Z,99520.88
2022-08-19T08:25:40.832Z,99507.78
2022-08-19T08:28:17.702Z,99515.97
2022-08-19T08:30:50.641Z,99517.31
2022-08-19T08:33:32.735Z,99518.63
2022-08-19T08:36:09.931Z,99523.59
2022-08-19T08:38:41.491Z,99518.66
2022-08-19T08:41:21.762Z,99521.75
2022-08-19T08:43:54.818Z,99515.88
2022-08-19T08:46:32.761Z,99515.66
2022-08-19T08:49:08.805Z,99515.53
2022-08-19T08:51:44.875Z,99513.66
2022-08-19T08:54:22.614Z,99510.06
2022-08-19T08:56:56.251Z,99516.63
2022-08-19T08:59:33.754Z,99520.84
2022-08-19T09:02:03.987Z,99510.91
2022-08-19T09:04:34.167Z,99510.63
2022-08-19T09:07:34.968Z,99514.22
2022-08-19T09:10:12.624Z,99508.22
2022-08-19T09:12:51.944Z,99516.09
2022-08-19T09:15:36.872Z,99516.44
2022-08-19T09:18:08.060Z,99513.63
2022-08-19T09:20:45.590Z,99516.69
2022-08-19T09:23:17.765Z,99512.19
2022-08-19T09:25:48.066Z,99515.88
2022-08-19T09:28:22.546Z,99512.69
2022-08-19T09:30:56.892Z,99517.31
2022-08-19T09:33:30.130Z,99520.56
2022-08-19T09:36:10.561Z,99514.00
2022-08-19T09:38:43.620Z,99517.19
2022-08-19T09:41:20.469Z,99530.03
2022-08-19T09:43:54.763Z,99534.66
2022-08-19T09:46:27.293Z,99527.28
2022-08-19T09:49:06.389Z,99535.88
2022-08-19T09:51:37.678Z,99534.78
2022-08-19T09:54:11.311Z,99518.16
2022-08-19T09:56:42.306Z,99521.06
2022-08-19T09:59:14.620Z,99528.94
2022-08-19T10:01:45.231Z,99528.31
2022-08-19T10:04:19.998Z,99528.19
2022-08-19T10:06:55.394Z,99529.75
2022-08-19T10:09:34.254Z,99537.72
2022-08-19T10:12:06.161Z,99536.16
2022-08-19T10:14:36.851Z,99540.34
2022-08-19T10:17:18.055Z,99538.28
2022-08-19T10:19:56.011Z,99542.44
2022-08-19T10:22:26.391Z,99551.72
2022-08-19T10:24:58.258Z,99552.28
2022-08-19T10:27:28.350Z,99540.47
2022-08-19T10:30:02.628Z,99543.81
2022-08-19T10:32:34.026Z,99541.31
2022-08-19T10:35:09.235Z,99538.53
2022-08-19T10:37:42.373Z,99543.03
2022-08-19T10:40:38.024Z,99528.41
2022-08-19T10:43:09.821Z,99550.06
2022-08-19T10:45:52.544Z,99544.75
2022-08-19T10:48:27.708Z,99554.84
2022-08-19T10:51:22.838Z,99552.13
2022-08-19T10:53:54.902Z,99550.44
2022-08-19T10:56:46.164Z,99549.28
2022-08-19T10:59:19.780Z,99557.00
2022-08-19T11:01:51.634Z,99568.72
2022-08-19T11:04:29.581Z,99554.69
2022-08-19T11:06:59.774Z,99549.75
2022-08-19T11:09:34.621Z,99554.72
2022-08-19T11:12:05.945Z,99535.78
2022-08-19T11:14:36.134Z,99542.84
2022-08-19T11:17:08.122Z,99538.28
2022-08-19T11:19:37.799Z,99541.06
2022-08-19T11:22:11.009Z,99535.97
2022-08-19T11:24:46.099Z,99538.38
2022-08-19T11:27:18.103Z,99540.31
2022-08-19T11:29:48.636Z,99528.00
2022-08-19T11:32:18.696Z,99529.38
2022-08-19T11:34:48.775Z,99530.75
2022-08-19T11:37:21.762Z,99531.94
2022-08-19T11:39:53.608Z,99541.22
2022-08-19T11:42:43.746Z,99540.72
2022-08-19T11:45:15.185Z,99542.78
2022-08-19T11:47:45.398Z,99547.75
2022-08-19T11:50:15.626Z,99542.91
2022-08-19T11:52:46.488Z,99544.59
2022-08-19T11:55:17.766Z,99542.75
2022-08-19T11:57:49.815Z,99540.34
2022-08-19T12:00:22.751Z,99543.75
2022-08-19T12:02:53.214Z,99534.78
2022-08-19T12:05:25.856Z,99536.25
2022-08-19T12:07:55.746Z,99526.31
2022-08-19T12:10:27.785Z,99527.25
2022-08-19T12:13:02.000Z,99537.81
2022-08-19T12:15:36.917Z,99523.38
2022-08-19T12:18:09.539Z,99527.59
2022-08-19T12:20:40.890Z,99526.38
2022-08-19T12:23:12.563Z,99526.06
2022-08-19T12:25:51.174Z,99527.31
2022-08-19T12:28:27.940Z,99523.06
2022-08-19T12:30:59.642Z,99524.00
2022-08-19T12:33:30.449Z,99527.44
2022-08-19T12:36:04.950Z,99525.78
2022-08-19T12:38:36.039Z,99533.38
2022-08-19T12:41:08.102Z,99533.38
2022-08-19T12:43:42.493Z,99518.91
2022-08-19T12:46:14.162Z,99516.78
2022-08-19T12:48:48.287Z,99518.63
2022-08-19T12:51:24.738Z,99521.63
2022-08-19T12:53:54.602Z,99531.75
2022-08-19T12:56:25.697Z,99525.25
2022-08-19T12:59:01.514Z,99530.41
2022-08-19T13:01:35.360Z,99532.84
2022-08-19T13:04:06.750Z,99530.91
2022-08-19T13:06:40.068Z,99534.34
2022-08-19T13:09:11.369Z,99539.19
2022-08-19T13:11:42.879Z,99521.78
2022-08-19T13:14:16.501Z,99528.28
2022-08-19T13:16:47.835Z,99533.50
2022-08-19T13:19:22.128Z,99542.19
2022-08-19T13:22:00.058Z,99533.34
2022-08-19T13:24:33.952Z,99542.13
2022-08-19T13:27:04.249Z,99535.50
2022-08-19T13:29:48.630Z,99541.16
2022-08-19T13:32:36.105Z,99528.44
2022-08-19T13:35:07.226Z,99543.78
2022-08-19T13:37:45.102Z,99543.19
2022-08-19T13:40:19.690Z,99546.16
2022-08-19T13:42:51.962Z,99541.13
2022-08-19T13:45:26.551Z,99538.19
2022-08-19T13:47:59.712Z,99537.72
2022-08-19T13:50:32.874Z,99549.06
2022-08-19T13:53:03.470Z,99550.94
2022-08-19T13:55:33.537Z,99554.06
2022-08-19T13:58:04.646Z,99557.06
2022-08-19T14:00:38.619Z,99557.41
2022-08-19T14:03:09.518Z,99553.03
2022-08-19T14:05:40.544Z,99557.56
2022-08-19T14:08:11.341Z,99555.72
2022-08-19T14:10:43.720Z,99567.56
2022-08-19T14:13:16.989Z,99562.88
2022-08-19T14:15:49.468Z,99558.88
2022-08-19T14:18:28.648Z,99559.88
2022-08-19T14:21:01.162Z,99559.31
2022-08-19T14:23:31.656Z,99568.22
2022-08-19T14:26:11.338Z,99567.28
2022-08-19T14:28:42.969Z,99565.97
2022-08-19T14:31:17.813Z,99564.06
2022-08-19T14:33:48.781Z,99562.94
2022-08-19T14:36:19.850Z,99562.50
2022-08-19T14:38:50.892Z,99573.59
2022-08-19T14:41:24.245Z,99570.09
2022-08-19T14:43:56.878Z,99569.31
2022-08-19T14:46:29.729Z,99577.91
2022-08-19T14:49:00.419Z,99570.59
2022-08-19T14:51:32.270Z,99564.22
2022-08-19T14:54:02.219Z,99572.94
2022-08-19T14:56:33.384Z,99583.91
2022-08-19T14:59:04.783Z,99590.84
2022-08-19T15:01:36.738Z,99585.69
2022-08-19T15:04:10.412Z,99581.06
2022-08-19T15:06:43.723Z,99582.91
2022-08-19T15:09:15.317Z,99577.44
2022-08-19T15:11:47.451Z,99577.00
2022-08-19T15:14:18.225Z,99582.16
2022-08-19T15:16:51.078Z,99585.13
2022-08-19T15:19:25.062Z,99584.22
2022-08-19T15:21:56.756Z,99582.66
2022-08-19T15:24:28.999Z,99587.56
2022-08-19T15:27:00.093Z,99583.34
2022-08-19T15:29:33.638Z,99592.63
2022-08-19T15:32:08.655Z,99593.56
2022-08-19T15:34:39.487Z,99593.75
2022-08-19T15:37:13.531Z,99590.53
2022-08-19T15:39:47.238Z,99594.53
2022-08-19T15:42:29.550Z,99602.19
2022-08-19T15:45:10.328Z,99601.94
2022-08-19T15:47:49.986Z,99608.41
2022-08-19T15:50:27.073Z,99611.28
2022-08-19T15:52:58.652Z,99609.25
2022-08-19T15:55:34.125Z,99620.06
2022-08-19T16:01:35.423Z,99618.06
2022-08-19T16:04:34.774Z,99618.50
2022-08-19T16:07:05.680Z,99627.78
2022-08-19T16:09:36.703Z,99627.09
2022-08-19T16:12:11.964Z,99623.97
2022-08-19T16:14:44.751Z,99626.25
2022-08-19T16:17:15.956Z,99628.22
2022-08-19T16:19:52.697Z,99625.13
2022-08-19T16:22:22.877Z,99628.31
2022-08-19T16:24:55.789Z,99628.75
2022-08-19T16:27:27.430Z,99623.41
2022-08-19T16:29:58.686Z,99620.00
2022-08-19T16:32:30.194Z,99626.53
2022-08-19T16:35:05.997Z,99633.16
2022-08-19T16:37:37.836Z,99637.28
2022-08-19T16:40:09.656Z,99637.19
2022-08-19T16:42:41.328Z,99642.06
2022-08-19T16:45:14.424Z,99644.84
2022-08-19T16:47:44.952Z,99651.59
2022-08-19T16:50:22.186Z,99651.28
2022-08-19T16:53:01.484Z,99654.38
2022-08-19T16:55:32.608Z,99658.78
2022-08-19T16:58:07.631Z,99663.22
2022-08-19T17:00:37.495Z,99674.09
2022-08-19T17:03:14.859Z,99688.72
2022-08-19T17:05:47.971Z,99685.94
2022-08-19T17:08:19.628Z,99682.16
2022-08-19T17:11:17.148Z,99687.03
2022-08-19T17:13:44.903Z,99680.25
2022-08-19T17:16:18.744Z,99681.63
2022-08-19T17:18:52.763Z,99675.16
2022-08-19T17:21:28.035Z,99675.44
2022-08-19T17:23:58.201Z,99681.56
2022-08-19T17:26:30.201Z,99680.78
2022-08-19T17:29:01.523Z,99676.88
2022-08-19T17:31:32.710Z,99673.78
2022-08-19T17:34:06.634Z,99674.81
2022-08-19T17:36:40.450Z,99676.13
2022-08-19T17:39:10.489Z,99676.31
2022-08-19T17:41:41.638Z,99673.13
2022-08-19T17:44:12.412Z,99681.59
2022-08-19T17:46:45.539Z,99685.50
2022-08-19T17:49:15.848Z,99681.41
2022-08-19T17:51:48.880Z,99685.94
2022-08-19T17:54:21.648Z,99685.22
2022-08-19T17:56:52.854Z,99681.28
2022-08-19T17:59:24.131Z,99684.84
2022-08-19T18:02:00.784Z,99685.19
2022-08-19T18:04:32.840Z,99683.00
2022-08-19T18:07:06.703Z,99689.66
2022-08-19T18:09:42.240Z,99684.31
2022-08-19T18:12:16.772Z,99679.91
2022-08-19T18:14:46.621Z,99680.88
2022-08-19T18:17:19.682Z,99682.41
2022-08-19T18:20:12.259Z,99692.78
2022-08-19T18:22:45.802Z,99695.91
2022-08-19T18:25:24.080Z,99699.31
2022-08-19T18:27:55.223Z,99707.94
2022-08-19T18:30:26.328Z,99712.28
2022-08-19T18:32:56.507Z,99708.34
2022-08-19T18:35:30.168Z,99712.94
2022-08-19T18:38:29.088Z,99703.63
2022-08-19T18:41:24.793Z,99698.69
2022-08-19T18:44:14.644Z,99704.41
2022-08-19T18:47:04.453Z,99700.44
2022-08-19T18:49:36.496Z,99703.59
2022-08-19T18:52:07.343Z,99706.44
2022-08-19T18:54:40.736Z,99706.31
2022-08-19T18:57:11.081Z,99702.09
2022-08-19T18:59:45.111Z,99710.56
2022-08-19T19:02:15.800Z,99704.16
2022-08-19T19:04:45.946Z,99701.06
2022-08-19T19:07:18.653Z,99702.31
2022-08-19T19:09:50.496Z,99705.53
2022-08-19T19:12:22.892Z,99705.66
2022-08-19T19:14:52.427Z,99703.34
2022-08-19T19:17:28.686Z,99700.56
2022-08-19T19:19:58.875Z,99710.50
2022-08-19T19:22:29.220Z,99701.13
2022-08-19T19:25:00.991Z,99708.16
2022-08-19T19:27:31.046Z,99701.78
2022-08-19T19:30:01.428Z,99701.00
2022-08-19T19:32:39.233Z,99697.78
2022-08-19T19:35:10.857Z,99697.03
2022-08-19T19:37:43.658Z,99696.94
2022-08-19T19:40:15.487Z,99705.34
2022-08-19T19:42:48.087Z,99699.63
2022-08-19T19:45:19.289Z,99702.81
2022-08-19T19:47:50.385Z,99707.16
2022-08-19T19:50:21.618Z,99715.50
2022-08-19T19:52:51.380Z,99714.72
2022-08-19T19:55:26.957Z,99719.16
2022-08-19T19:57:58.339Z,99712.91
2022-08-19T20:00:30.110Z,99710.91
2022-08-19T20:03:01.296Z,99713.00
2022-08-19T20:05:32.573Z,99718.13
2022-08-19T20:08:23.110Z,99718.84
2022-08-19T20:10:58.116Z,99719.63
2022-08-19T20:13:30.641Z,99717.63
2022-08-19T20:16:03.888Z,99725.25
2022-08-19T20:18:33.491Z,99726.97
2022-08-19T20:21:04.038Z,99725.84
2022-08-19T20:23:34.940Z,99722.63
2022-08-19T20:26:09.678Z,99725.03
2022-08-19T20:29:11.286Z,99731.00
2022-08-19T20:31:57.781Z,99729.41
2022-08-19T20:34:31.616Z,99726.69
2022-08-19T20:37:02.584Z,99738.34
2022-08-19T20:39:32.699Z,99729.97
2022-08-19T20:42:03.504Z,99736.34
2022-08-19T20:44:33.184Z,99744.28
2022-08-19T20:47:04.078Z,99740.81
2022-08-19T20:49:39.967Z,99737.63
2022-08-19T20:52:09.876Z,99728.16
2022-08-19T20:54:39.726Z,99731.31
2022-08-19T20:57:12.571Z,99734.44
2022-08-19T20:59:42.388Z,99731.34
2022-08-19T21:02:12.853Z,99746.38
2022-08-19T21:04:42.467Z,99745.59
2022-08-19T21:07:14.674Z,99746.28
2022-08-19T21:09:44.711Z,99746.44
2022-08-19T21:12:16.440Z,99753.56
2022-08-19T21:14:47.560Z,99750.00
2022-08-19T21:17:18.546Z,99747.94
2022-08-19T21:19:55.350Z,99754.63
2022-08-19T21:22:24.840Z,99752.03
2022-08-19T21:24:56.476Z,99742.81
2022-08-19T21:27:28.504Z,99757.97
2022-08-19T21:30:01.526Z,99756.75
2022-08-19T21:32:34.501Z,99755.44
2022-08-19T21:35:04.868Z,99761.44
2022-08-19T21:37:35.680Z,99747.97
2022-08-19T21:40:06.658Z,99756.66
2022-08-19T21:42:43.790Z,99764.97
2022-08-19T21:45:24.265Z,99749.22
2022-08-19T21:47:59.760Z,99750.41
2022-08-19T21:50:32.898Z,99746.06
2022-08-19T21:53:05.026Z,99739.34
2022-08-19T21:55:35.502Z,99747.63
2022-08-19T21:58:06.758Z,99749.69
2022-08-19T22:00:38.274Z,99753.34
2022-08-19T22:03:08.252Z,99752.91
2022-08-19T22:05:38.084Z,99750.56
2022-08-19T22:08:07.802Z,99759.72
2022-08-19T22:10:39.041Z,99760.91
2022-08-19T22:13:11.384Z,99753.66
2022-08-19T22:15:42.595Z,99752.91
2022-08-19T22:18:13.861Z,99764.09
2022-08-19T22:20:45.240Z,99759.69
2022-08-19T22:23:15.184Z,99767.25
2022-08-19T22:25:48.073Z,99765.63
2022-08-19T22:28:28.161Z,99773.22
2022-08-19T22:30:57.915Z,99763.44
2022-08-19T22:33:28.106Z,99767.31
2022-08-19T22:35:58.103Z,99764.94
2022-08-19T22:38:28.275Z,99768.13
2022-08-19T22:40:57.443Z,99770.09
2022-08-19T22:43:30.680Z,99771.22
2022-08-19T22:46:01.800Z,99777.66
2022-08-19T22:48:32.930Z,99772.50
2022-08-19T22:51:20.529Z,99771.00
2022-08-19T22:53:50.163Z,99777.72
2022-08-19T22:56:20.728Z,99775.38
2022-08-19T22:58:52.871Z,99771.34
2022-08-19T23:01:27.693Z,99776.59
2022-08-19T23:04:03.732Z,99777.84
2022-08-19T23:06:36.383Z,99773.16
2022-08-19T23:09:09.010Z,99775.97
2022-08-19T23:11:42.027Z,99777.16
2022-08-19T23:14:14.579Z,99781.59
2022-08-19T23:16:50.470Z,99787.94
2022-08-19T23:19:20.579Z,99798.25
2022-08-19T23:21:50.723Z,99801.03
2022-08-19T23:24:20.572Z,99793.56
2022-08-19T23:27:07.559Z,99799.09
2022-08-19T23:29:56.445Z,99792.38
2022-08-19T23:32:26.817Z,99801.88
2022-08-19T23:34:59.776Z,99789.22
2022-08-19T23:37:29.954Z,99795.19
2022-08-19T23:40:01.492Z,99789.66
2022-08-19T23:42:31.955Z,99795.59
2022-08-19T23:45:08.905Z,99797.56
2022-08-19T23:47:41.347Z,99794.00
2022-08-19T23:50:11.878Z,99792.84
2022-08-19T23:52:46.711Z,99795.59
2022-08-19T23:55:18.049Z,99799.16
2022-08-19T23:57:48.310Z,99798.75
